createdAt,value
2023-02-11T00:01:10.394Z,25.37
2023-02-11T00:03:39.010Z,31.67
2023-02-11T00:06:09.812Z,27.63
2023-02-11T00:08:38.535Z,34.00
2023-02-11T00:11:05.968Z,43.10
2023-02-11T00:13:33.347Z,47.57
2023-02-11T00:16:00.545Z,45.13
2023-02-11T00:18:28.988Z,43.43
2023-02-11T00:20:56.449Z,36.10
2023-02-11T00:23:23.652Z,35.87
2023-02-11T00:25:51.885Z,33.83
2023-02-11T00:28:19.077Z,33.90
2023-02-11T00:30:54.116Z,32.10
2023-02-11T00:33:21.707Z,37.57
2023-02-11T00:35:49.077Z,38.30
2023-02-11T00:38:17.169Z,37.70
2023-02-11T00:40:44.218Z,39.30
2023-02-11T00:43:11.485Z,45.40
2023-02-11T00:45:38.760Z,74.87
2023-02-11T00:48:06.110Z,78.17
2023-02-11T00:50:33.184Z,68.73
2023-02-11T00:53:01.030Z,70.17
2023-02-11T00:55:29.680Z,72.07
2023-02-11T00:58:00.221Z,69.50
2023-02-11T01:00:28.289Z,62.83
2023-02-11T01:02:56.100Z,60.37
2023-02-11T01:05:23.233Z,55.93
2023-02-11T01:07:50.910Z,59.43
2023-02-11T01:10:18.009Z,51.03
2023-02-11T01:12:46.355Z,58.20
2023-02-11T01:15:17.431Z,58.50
2023-02-11T01:17:51.872Z,52.93
2023-02-11T01:20:24.148Z,48.03
2023-02-11T01:22:51.295Z,44.23
2023-02-11T01:25:18.487Z,49.17
2023-02-11T01:27:45.688Z,53.43
2023-02-11T01:30:14.446Z,49.60
2023-02-11T01:32:41.786Z,53.77
2023-02-11T01:35:09.198Z,56.23
2023-02-11T01:37:36.906Z,42.87
2023-02-11T01:40:07.043Z,53.90
2023-02-11T01:42:35.223Z,44.17
2023-02-11T01:45:57.800Z,44.97
2023-02-11T01:48:29.623Z,51.83
2023-02-11T01:51:29.448Z,51.87
2023-02-11T01:54:17.136Z,48.80
2023-02-11T01:59:52.735Z,45.17
2023-02-11T02:02:29.821Z,49.47
2023-02-11T02:05:15.688Z,52.63
2023-02-11T02:07:50.248Z,61.37
2023-02-11T02:10:23.262Z,64.90
2023-02-11T02:12:50.866Z,59.13
2023-02-11T02:15:23.557Z,52.97
2023-02-11T02:18:00.485Z,47.87
2023-02-11T02:20:56.694Z,45.75
2023-02-11T02:23:52.628Z,40.43
2023-02-11T02:26:25.961Z,29.93
2023-02-11T02:29:32.242Z,28.77
2023-02-11T02:32:23.745Z,28.57
2023-02-11T02:35:10.595Z,27.03
2023-02-11T02:38:08.828Z,25.43
2023-02-11T02:40:50.019Z,27.52
2023-02-11T02:43:19.004Z,25.70
2023-02-11T02:45:46.073Z,26.63
2023-02-11T02:48:33.559Z,26.50
2023-02-11T02:51:30.042Z,26.55
2023-02-11T02:54:30.200Z,25.23
2023-02-11T02:57:30.976Z,27.80
2023-02-11T03:00:10.623Z,25.00
2023-02-11T03:02:50.850Z,27.87
2023-02-11T03:05:22.515Z,28.37
2023-02-11T03:07:52.669Z,26.27
2023-02-11T03:10:31.836Z,27.53
2023-02-11T03:13:01.198Z,26.80
2023-02-11T03:15:33.078Z,28.33
2023-02-11T03:18:02.282Z,29.67
2023-02-11T03:20:33.567Z,28.97
2023-02-11T03:23:11.310Z,28.57
2023-02-11T03:25:49.002Z,27.30
2023-02-11T03:28:26.563Z,30.90
2023-02-11T03:31:02.999Z,29.33
2023-02-11T03:33:47.473Z,27.90
2023-02-11T03:36:21.287Z,29.33
2023-02-11T03:38:53.308Z,29.67
2023-02-11T03:41:24.130Z,31.00
2023-02-11T03:43:56.393Z,30.57
2023-02-11T03:46:31.887Z,31.63
2023-02-11T03:49:07.911Z,33.17
2023-02-11T03:51:37.091Z,33.47
2023-02-11T03:54:09.591Z,33.17
2023-02-11T03:56:49.235Z,29.47
2023-02-11T03:59:17.582Z,31.70
2023-02-11T04:01:44.631Z,28.70
2023-02-11T04:04:12.060Z,28.60
2023-02-11T04:06:39.534Z,27.37
2023-02-11T04:09:07.352Z,28.63
2023-02-11T04:11:34.439Z,30.53
2023-02-11T04:14:01.563Z,32.90
2023-02-11T04:16:30.480Z,30.00
2023-02-11T04:18:58.389Z,29.03
2023-02-11T04:21:25.402Z,28.23
2023-02-11T04:23:52.516Z,29.60
2023-02-11T04:26:19.627Z,29.13
2023-02-11T04:28:46.707Z,31.83
2023-02-11T04:31:13.904Z,28.13
2023-02-11T04:33:41.160Z,28.03
2023-02-11T04:36:08.907Z,31.87
2023-02-11T04:38:35.963Z,39.43
2023-02-11T04:41:03.074Z,42.17
2023-02-11T04:43:30.041Z,38.83
2023-02-11T04:45:58.894Z,42.67
2023-02-11T04:48:26.524Z,47.17
2023-02-11T04:50:53.615Z,41.77
2023-02-11T04:53:20.801Z,46.63
2023-02-11T04:55:51.368Z,39.03
2023-02-11T04:58:19.940Z,35.53
2023-02-11T05:00:47.602Z,38.90
2023-02-11T05:03:14.769Z,45.10
2023-02-11T05:05:42.908Z,35.30
2023-02-11T05:08:11.322Z,35.47
2023-02-11T05:10:38.502Z,28.33
2023-02-11T05:13:05.584Z,31.37
2023-02-11T05:15:32.789Z,38.60
2023-02-11T05:17:59.879Z,28.83
2023-02-11T05:20:26.894Z,31.97
2023-02-11T05:22:53.916Z,33.80
2023-02-11T05:25:20.950Z,38.93
2023-02-11T05:27:47.991Z,42.60
2023-02-11T05:30:15.060Z,36.50
2023-02-11T05:32:42.203Z,32.53
2023-02-11T05:35:09.780Z,36.27
2023-02-11T05:37:36.839Z,34.33
2023-02-11T05:40:04.360Z,38.57
2023-02-11T05:42:31.331Z,46.60
2023-02-11T05:44:58.469Z,42.70
2023-02-11T05:47:25.661Z,42.60
2023-02-11T05:49:53.828Z,42.63
2023-02-11T05:52:22.227Z,53.50
2023-02-11T05:54:49.256Z,44.10
2023-02-11T05:57:17.427Z,43.43
2023-02-11T05:59:44.504Z,42.53
2023-02-11T06:02:11.700Z,37.87
2023-02-11T06:04:39.009Z,37.30
2023-02-11T06:07:06.038Z,39.40
2023-02-11T06:09:33.110Z,38.37
2023-02-11T06:12:00.130Z,33.60
2023-02-11T06:14:27.240Z,33.83
2023-02-11T06:16:54.359Z,32.43
2023-02-11T06:19:21.344Z,39.77
2023-02-11T06:21:48.426Z,26.40
2023-02-11T06:24:17.405Z,27.63
2023-02-11T06:26:46.410Z,29.67
2023-02-11T06:29:14.178Z,27.37
2023-02-11T06:31:41.562Z,27.43
2023-02-11T06:34:10.616Z,27.67
2023-02-11T06:36:39.780Z,23.70
2023-02-11T06:39:07.928Z,25.67
2023-02-11T06:41:35.036Z,22.33
2023-02-11T06:44:02.142Z,24.90
2023-02-11T06:46:29.132Z,24.30
2023-02-11T06:48:56.246Z,24.73
2023-02-11T06:51:23.712Z,26.10
2023-02-11T06:53:50.707Z,30.63
2023-02-11T06:56:20.335Z,32.87
2023-02-11T06:58:48.009Z,31.33
2023-02-11T07:01:16.647Z,35.60
2023-02-11T07:03:45.346Z,28.90
2023-02-11T07:06:15.131Z,14.40
2023-02-11T07:08:43.307Z,14.20
2023-02-11T07:11:19.846Z,18.90
2023-02-11T07:13:48.045Z,21.55
2023-02-11T07:16:17.232Z,21.30
2023-02-11T07:18:45.894Z,22.00
2023-02-11T07:21:14.718Z,22.93
2023-02-11T07:23:42.374Z,21.47
2023-02-11T07:26:13.013Z,23.33
2023-02-11T07:28:41.538Z,22.70
2023-02-11T07:31:10.356Z,23.63
2023-02-11T07:33:38.384Z,25.07
2023-02-11T07:36:07.671Z,27.13
2023-02-11T07:38:35.772Z,27.53
2023-02-11T07:41:05.752Z,29.33
2023-02-11T07:43:33.577Z,27.87
2023-02-11T07:46:04.829Z,30.30
2023-02-11T07:48:32.263Z,27.33
2023-02-11T07:51:24.526Z,28.13
2023-02-11T07:53:52.333Z,29.20
2023-02-11T07:56:21.077Z,23.83
2023-02-11T07:58:48.434Z,24.80
2023-02-11T08:01:27.334Z,27.10
2023-02-11T08:03:56.208Z,25.63
2023-02-11T08:06:26.153Z,23.03
2023-02-11T08:08:53.763Z,16.07
2023-02-11T08:11:28.588Z,23.80
2023-02-11T08:13:57.016Z,23.33
2023-02-11T08:16:28.320Z,21.37
2023-02-11T08:19:00.870Z,20.13
2023-02-11T08:21:28.814Z,19.50
2023-02-11T08:23:56.775Z,19.67
2023-02-11T08:26:29.400Z,15.50
2023-02-11T08:29:01.350Z,14.43
2023-02-11T08:31:37.768Z,17.57
2023-02-11T08:34:05.451Z,18.38
2023-02-11T08:36:34.823Z,19.07
2023-02-11T08:39:17.960Z,19.23
2023-02-11T08:41:49.111Z,19.53
2023-02-11T08:44:17.225Z,14.80
2023-02-11T08:46:44.185Z,19.37
2023-02-11T08:49:11.947Z,17.33
2023-02-11T08:51:38.912Z,16.70
2023-02-11T08:54:09.861Z,18.53
2023-02-11T08:56:38.918Z,16.63
2023-02-11T08:59:07.276Z,16.93
2023-02-11T09:01:35.168Z,16.57
2023-02-11T09:04:02.476Z,15.87
2023-02-11T09:06:30.210Z,14.50
2023-02-11T09:08:58.205Z,12.17
2023-02-11T09:11:29.909Z,14.63
2023-02-11T09:13:57.632Z,14.67
2023-02-11T09:16:28.051Z,14.20
2023-02-11T09:18:58.067Z,13.97
2023-02-11T09:21:25.145Z,13.07
2023-02-11T09:23:52.970Z,13.00
2023-02-11T09:26:23.243Z,13.53
2023-02-11T09:28:51.565Z,14.03
2023-02-11T09:31:21.759Z,14.17
2023-02-11T09:33:51.330Z,11.83
2023-02-11T09:36:21.946Z,12.20
2023-02-11T09:38:49.760Z,13.37
2023-02-11T09:41:54.952Z,11.77
2023-02-11T09:44:28.563Z,12.30
2023-02-11T09:47:02.517Z,13.63
2023-02-11T09:49:44.522Z,13.70
2023-02-11T09:52:38.458Z,15.47
2023-02-11T09:55:17.188Z,17.23
2023-02-11T09:57:44.877Z,13.50
2023-02-11T10:00:21.555Z,13.97
2023-02-11T10:03:14.454Z,14.23
2023-02-11T10:05:44.712Z,16.70
2023-02-11T10:08:29.833Z,15.17
2023-02-11T10:11:31.266Z,15.37
2023-02-11T10:14:25.646Z,16.20
2023-02-11T10:17:10.845Z,15.90
2023-02-11T10:20:07.077Z,15.30
2023-02-11T10:22:45.165Z,17.33
2023-02-11T10:25:21.945Z,16.60
2023-02-11T10:27:50.875Z,15.68
2023-02-11T10:30:27.063Z,16.43
2023-02-11T10:33:00.991Z,12.18
2023-02-11T10:35:28.418Z,13.50
2023-02-11T10:37:56.385Z,12.60
2023-02-11T10:40:27.582Z,13.57
2023-02-11T10:42:59.494Z,15.23
2023-02-11T10:45:38.991Z,15.57
2023-02-11T10:48:27.341Z,12.33
2023-02-11T10:51:14.708Z,13.00
2023-02-11T10:53:42.453Z,13.52
2023-02-11T10:56:14.659Z,14.07
2023-02-11T10:58:54.643Z,13.63
2023-02-11T11:01:24.742Z,12.93
2023-02-11T11:03:53.264Z,13.47
2023-02-11T11:06:34.145Z,13.60
2023-02-11T11:09:02.263Z,13.83
2023-02-11T11:11:29.513Z,13.83
2023-02-11T11:14:00.438Z,13.17
2023-02-11T11:16:38.396Z,14.33
2023-02-11T11:19:08.411Z,14.03
2023-02-11T11:21:42.431Z,13.50
2023-02-11T11:24:34.709Z,15.93
2023-02-11T11:27:04.630Z,16.77
2023-02-11T11:29:43.339Z,15.37
2023-02-11T11:32:47.331Z,13.77
2023-02-11T11:35:35.291Z,15.47
2023-02-11T11:38:05.256Z,15.15
2023-02-11T11:40:36.611Z,14.23
2023-02-11T11:43:05.290Z,14.52
2023-02-11T11:45:32.552Z,14.07
2023-02-11T11:48:28.740Z,14.98
2023-02-11T11:51:02.233Z,15.38
2023-02-11T11:53:44.185Z,14.85
2023-02-11T11:56:21.978Z,15.32
2023-02-11T11:58:51.016Z,14.68
2023-02-11T12:01:56.172Z,15.18
2023-02-11T12:04:37.955Z,15.48
2023-02-11T12:07:25.885Z,15.05
2023-02-11T12:09:55.887Z,16.92
2023-02-11T12:12:40.732Z,15.00
2023-02-11T12:15:55.159Z,16.15
2023-02-11T12:18:38.952Z,15.30
2023-02-11T12:21:08.991Z,15.25
2023-02-11T12:23:51.717Z,15.23
2023-02-11T12:26:23.564Z,15.63
2023-02-11T12:29:17.304Z,15.82
2023-02-11T12:32:05.640Z,14.80
2023-02-11T12:35:05.182Z,16.92
2023-02-11T12:38:08.486Z,15.00
2023-02-11T12:40:52.616Z,15.05
2023-02-11T12:43:27.911Z,15.05
2023-02-11T12:46:24.968Z,16.95
2023-02-11T12:49:07.139Z,15.73
2023-02-11T12:51:49.902Z,14.25
2023-02-11T12:54:41.611Z,13.82
2023-02-11T12:57:22.259Z,13.65
2023-02-11T13:00:19.354Z,14.40
2023-02-11T13:03:10.375Z,14.05
2023-02-11T13:05:51.562Z,14.75
2023-02-11T13:08:36.197Z,12.90
2023-02-11T13:11:14.344Z,14.93
2023-02-11T13:14:22.385Z,14.82
2023-02-11T13:16:51.223Z,16.42
2023-02-11T13:19:18.280Z,16.83
2023-02-11T13:22:30.116Z,17.10
2023-02-11T13:27:30.838Z,17.35
2023-02-11T13:30:30.404Z,16.67
2023-02-11T13:32:57.412Z,15.52
2023-02-11T13:35:57.966Z,15.02
2023-02-11T13:38:27.785Z,15.65
2023-02-11T13:41:13.746Z,15.70
2023-02-11T13:43:41.118Z,18.15
2023-02-11T13:46:11.748Z,16.95
2023-02-11T13:48:46.396Z,18.48
2023-02-11T13:51:16.766Z,17.02
2023-02-11T13:53:58.079Z,15.60
2023-02-11T13:56:40.084Z,16.30
2023-02-11T13:59:30.874Z,16.48
2023-02-11T14:02:40.300Z,15.35
2023-02-11T14:05:25.797Z,15.32
2023-02-11T14:08:42.272Z,14.98
2023-02-11T14:11:25.328Z,14.80
2023-02-11T14:13:52.364Z,14.25
2023-02-11T14:16:36.982Z,14.27
2023-02-11T14:19:06.540Z,15.27
2023-02-11T14:21:37.813Z,15.18
2023-02-11T14:24:05.156Z,16.75
2023-02-11T14:26:45.538Z,15.27
2023-02-11T14:29:14.299Z,14.93
2023-02-11T14:31:49.506Z,18.00
2023-02-11T14:34:16.545Z,16.52
2023-02-11T14:37:20.095Z,15.88
2023-02-11T14:39:55.934Z,16.92
2023-02-11T14:42:27.108Z,15.18
2023-02-11T14:44:59.015Z,19.83
2023-02-11T14:47:52.724Z,23.83
2023-02-11T14:50:25.741Z,20.23
2023-02-11T14:52:54.956Z,25.55
2023-02-11T14:55:43.416Z,21.33
2023-02-11T14:58:19.577Z,22.02
2023-02-11T15:01:01.731Z,25.48
2023-02-11T15:03:35.870Z,26.73
2023-02-11T15:06:05.517Z,25.42
2023-02-11T15:08:36.681Z,22.15
2023-02-11T15:11:10.489Z,26.40
2023-02-11T15:13:38.557Z,24.73
2023-02-11T15:16:10.189Z,24.40
2023-02-11T15:18:44.959Z,21.92
2023-02-11T15:21:12.128Z,23.08
2023-02-11T15:23:40.863Z,22.05
2023-02-11T15:26:18.181Z,19.42
2023-02-11T15:28:52.305Z,21.17
2023-02-11T15:31:23.541Z,22.92
2023-02-11T15:33:52.297Z,22.73
2023-02-11T15:36:28.057Z,21.02
2023-02-11T15:39:29.543Z,22.55
2023-02-11T15:41:56.686Z,24.52
2023-02-11T15:44:29.304Z,24.55
2023-02-11T15:46:56.658Z,23.98
2023-02-11T15:49:25.297Z,25.10
2023-02-11T15:51:55.194Z,25.42
2023-02-11T15:54:27.090Z,24.35
2023-02-11T15:57:05.855Z,25.98
2023-02-11T15:59:39.457Z,25.52
2023-02-11T16:02:21.236Z,24.27
2023-02-11T16:05:05.166Z,28.70
2023-02-11T16:07:47.549Z,32.47
2023-02-11T16:10:21.366Z,33.42
2023-02-11T16:12:55.776Z,32.80
2023-02-11T16:15:31.130Z,35.38
2023-02-11T16:17:59.440Z,36.38
2023-02-11T16:20:27.262Z,36.85
2023-02-11T16:22:56.002Z,29.98
2023-02-11T16:25:24.570Z,29.85
2023-02-11T16:27:54.182Z,30.05
2023-02-11T16:30:35.846Z,27.10
2023-02-11T16:33:05.894Z,27.23
2023-02-11T16:35:34.090Z,26.85
2023-02-11T16:38:01.275Z,27.02
2023-02-11T16:40:28.261Z,27.95
2023-02-11T16:42:56.122Z,29.05
2023-02-11T16:45:23.216Z,30.15
2023-02-11T16:47:50.378Z,32.70
2023-02-11T16:50:25.119Z,39.83
2023-02-11T16:52:52.799Z,48.97
2023-02-11T16:55:21.969Z,55.08
2023-02-11T16:57:51.907Z,62.22
2023-02-11T17:00:19.374Z,60.72
2023-02-11T17:02:46.629Z,65.35
2023-02-11T17:05:23.297Z,64.00
2023-02-11T17:07:50.359Z,53.22
2023-02-11T17:10:25.761Z,51.93
2023-02-11T17:12:53.618Z,46.40
2023-02-11T17:15:20.576Z,43.80
2023-02-11T17:17:48.333Z,44.53
2023-02-11T17:20:15.907Z,41.70
2023-02-11T17:22:42.973Z,40.07
2023-02-11T17:25:10.775Z,35.03
2023-02-11T17:27:37.845Z,42.17
2023-02-11T17:30:05.834Z,44.00
2023-02-11T17:32:32.907Z,31.97
2023-02-11T17:35:00.109Z,41.13
2023-02-11T17:37:27.366Z,49.30
2023-02-11T17:39:54.444Z,48.80
2023-02-11T17:42:21.440Z,46.43
2023-02-11T17:44:48.555Z,46.33
2023-02-11T17:47:15.673Z,42.80
2023-02-11T17:49:42.780Z,39.60
2023-02-11T17:52:10.088Z,35.73
2023-02-11T17:54:38.388Z,36.60
2023-02-11T17:57:05.565Z,43.63
2023-02-11T17:59:35.659Z,42.97
2023-02-11T18:02:04.161Z,37.80
2023-02-11T18:04:32.253Z,34.20
2023-02-11T18:06:59.333Z,31.23
2023-02-11T18:09:26.937Z,36.10
2023-02-11T18:11:54.043Z,39.67
2023-02-11T18:14:22.334Z,43.47
2023-02-11T18:16:53.183Z,43.83
2023-02-11T18:19:21.076Z,39.43
2023-02-11T18:21:50.637Z,44.60
2023-02-11T18:24:18.444Z,43.87
2023-02-11T18:26:45.464Z,42.63
2023-02-11T18:29:12.680Z,34.00
2023-02-11T18:31:39.856Z,38.07
2023-02-11T18:34:10.791Z,39.83
2023-02-11T18:36:37.870Z,43.80
2023-02-11T18:39:06.006Z,50.00
2023-02-11T18:41:33.403Z,92.43
2023-02-11T18:44:03.401Z,116.17
2023-02-11T18:46:31.501Z,100.07
2023-02-11T18:48:58.702Z,93.87
2023-02-11T18:51:26.164Z,127.50
2023-02-11T18:53:54.008Z,129.53
2023-02-11T18:56:23.113Z,133.90
2023-02-11T18:58:51.560Z,113.30
2023-02-11T19:01:24.710Z,83.27
2023-02-11T19:03:52.266Z,49.37
2023-02-11T19:06:38.353Z,66.70
2023-02-11T19:09:12.389Z,45.23
2023-02-11T19:11:54.610Z,42.43
2023-02-11T19:14:27.784Z,65.07
2023-02-11T19:16:57.523Z,112.07
2023-02-11T19:19:28.183Z,127.70
2023-02-11T19:21:57.076Z,95.27
2023-02-11T19:24:25.019Z,129.27
2023-02-11T19:26:53.890Z,125.57
2023-02-11T19:29:21.131Z,110.20
2023-02-11T19:31:48.320Z,90.73
2023-02-11T19:34:17.022Z,68.40
2023-02-11T19:36:44.277Z,55.10
2023-02-11T19:39:11.873Z,59.80
2023-02-11T19:41:39.372Z,69.50
2023-02-11T19:44:08.008Z,40.10
2023-02-11T19:46:37.722Z,47.63
2023-02-11T19:49:05.876Z,53.90
2023-02-11T19:51:33.976Z,50.63
2023-02-11T19:54:01.336Z,46.83
2023-02-11T19:56:29.508Z,70.67
2023-02-11T19:58:56.916Z,103.83
2023-02-11T20:01:26.223Z,104.40
2023-02-11T20:03:55.625Z,159.97
2023-02-11T20:06:25.657Z,139.60
2023-02-11T20:08:58.624Z,138.53
2023-02-11T20:11:28.359Z,103.03
2023-02-11T20:13:56.795Z,98.10
2023-02-11T20:16:40.713Z,76.70
2023-02-11T20:19:19.732Z,68.57
2023-02-11T20:21:48.579Z,78.97
2023-02-11T20:24:18.070Z,119.70
2023-02-11T20:26:47.078Z,150.07
2023-02-11T20:29:15.680Z,101.23
2023-02-11T20:31:43.190Z,99.70
2023-02-11T20:34:11.506Z,75.60
2023-02-11T20:36:41.086Z,69.67
2023-02-11T20:39:11.555Z,66.83
2023-02-11T20:41:41.443Z,80.07
2023-02-11T20:44:11.197Z,67.10
2023-02-11T20:46:42.297Z,59.70
2023-02-11T20:49:19.024Z,70.70
2023-02-11T20:51:47.037Z,51.33
2023-02-11T20:54:19.447Z,51.17
2023-02-11T20:56:48.217Z,54.97
2023-02-11T20:59:17.009Z,57.27
2023-02-11T21:01:49.640Z,61.93
2023-02-11T21:04:20.429Z,57.90
2023-02-11T21:06:53.382Z,57.77
2023-02-11T21:09:26.546Z,59.43
2023-02-11T21:11:55.428Z,56.73
2023-02-11T21:14:24.181Z,52.43
2023-02-11T21:16:52.134Z,65.27
2023-02-11T21:19:20.387Z,61.67
2023-02-11T21:21:48.052Z,59.97
2023-02-11T21:24:16.006Z,66.13
2023-02-11T21:26:43.377Z,66.07
2023-02-11T21:29:11.877Z,67.27
2023-02-11T21:31:39.137Z,71.10
2023-02-11T21:34:07.531Z,70.80
2023-02-11T21:36:34.866Z,74.47
2023-02-11T21:39:04.109Z,81.43
2023-02-11T21:41:31.603Z,78.17
2023-02-11T21:43:58.890Z,82.10
2023-02-11T21:46:26.342Z,94.47
2023-02-11T21:48:53.689Z,72.57
2023-02-11T21:51:23.348Z,53.13
2023-02-11T21:53:59.385Z,46.70
2023-02-11T21:56:31.584Z,110.17
2023-02-11T21:58:59.926Z,78.03
2023-02-11T22:01:30.940Z,103.73
2023-02-11T22:03:59.449Z,117.47
2023-02-11T22:06:33.282Z,146.80
2023-02-11T22:09:08.313Z,132.87
2023-02-11T22:11:36.375Z,71.67
2023-02-11T22:14:03.770Z,103.73
2023-02-11T22:16:31.352Z,71.80
2023-02-11T22:18:59.439Z,103.57
2023-02-11T22:21:27.064Z,90.70
2023-02-11T22:23:55.575Z,57.40
2023-02-11T22:26:24.782Z,40.73
2023-02-11T22:28:52.331Z,41.40
2023-02-11T22:31:28.630Z,45.50
2023-02-11T22:33:56.919Z,49.40
2023-02-11T22:36:32.445Z,90.90
2023-02-11T22:39:06.012Z,68.87
2023-02-11T22:41:33.828Z,81.63
2023-02-11T22:44:00.972Z,72.13
2023-02-11T22:46:28.096Z,123.00
2023-02-11T22:48:55.260Z,147.97
2023-02-11T22:51:24.870Z,129.87
2023-02-11T22:53:59.963Z,125.07
2023-02-11T22:56:28.371Z,109.57
2023-02-11T22:59:00.238Z,114.13
2023-02-11T23:01:28.562Z,123.47
2023-02-11T23:03:56.296Z,116.63
2023-02-11T23:06:28.800Z,66.57
2023-02-11T23:08:56.132Z,49.77
2023-02-11T23:11:26.194Z,39.60
2023-02-11T23:13:53.958Z,32.57
2023-02-11T23:16:24.429Z,34.70
2023-02-11T23:18:52.233Z,32.60
2023-02-11T23:21:25.072Z,31.30
2023-02-11T23:24:04.194Z,29.37
2023-02-11T23:26:31.266Z,26.20
2023-02-11T23:28:59.838Z,29.50
2023-02-11T23:31:30.508Z,36.80
2023-02-11T23:33:57.724Z,32.77
2023-02-11T23:36:24.752Z,29.20
2023-02-11T23:38:54.505Z,36.43
2023-02-11T23:41:22.528Z,51.90
2023-02-11T23:43:57.846Z,50.07
2023-02-11T23:46:26.921Z,51.13
2023-02-11T23:48:54.309Z,55.07
2023-02-11T23:51:21.927Z,59.13
2023-02-11T23:53:51.668Z,61.83
2023-02-11T23:56:21.597Z,65.87
2023-02-11T23:58:50.235Z,58.30
